St Gallen Altenrhein Airport

LSZR · Sankt Gallen, Schweiz

METAR-Geschichte LSZR · Flughafen St. Gallen-Altenrhein

Unten siehst du die METARs der letzten paar Tage. Wähle ein Jahr, um ältere METARs ab dem Jahr 2007 zu durchsuchen.

20. April 2024

Uhrzeit Code Wetter Temp. Sichtweite Wolkendecke Wind METAR/SPECI
08:20
V
5 °C 10 km+ 5.000 ft 250° 250° 8 kt METAR LSZR 200620Z 25008KT 230V290 9999 FEW025 BKN050 05/01 Q1016 RMK B
07:50
V
5 °C 10 km+ 5.000 ft 250° 250° 7 kt METAR LSZR 200550Z AUTO 25007KT 220V300 9999 FEW021 BKN050 BKN070 05/01 Q1016
07:20
M
5 °C 10 km+ 2.500 ft 250° 250° 6 kt METAR LSZR 200520Z 25006KT 220V300 9999 BKN025 BKN050 05/02 Q1016 RMK A
06:50
M
5 °C 10 km+ 2.400 ft 260° 260° 4 kt METAR LSZR 200450Z AUTO 26004KT 230V300 9999 BKN024 BKN027 05/02 Q1015
06:20
M
5 °C 10 km+ 2.600 ft 250° 250° 7 kt METAR LSZR 200420Z AUTO 25007KT 220V290 9999 SCT023 BKN026 BKN029 05/02 Q1015
05:50
M
5 °C 10 km+ 2.500 ft 260° 260° 8 kt METAR LSZR 200350Z AUTO 26008KT 220V290 9999 BKN025 BKN028 BKN060 05/02 Q1015
05:20
M
5 °C 10 km+ 2.700 ft 250° 250° 7 kt METAR LSZR 200320Z AUTO 25007KT 220V290 9999 SCT024 BKN027 BKN030 05/02 Q1014
04:50
M
5 °C 10 km+ 2.600 ft 260° 260° 4 kt METAR LSZR 200250Z AUTO 26004KT 210V290 9999 FEW020 BKN026 OVC070 05/02 Q1014 RERA
04:20
M
4 °C 10 km+ 1.500 ft 320° 320° 9 kt METAR LSZR 200220Z AUTO 32009KT 9999 RA SCT012 OVC015 OVC017 04/03 Q1014
03:50
M
4 °C 10 km+ 2.600 ft 270° 270° 7 kt METAR LSZR 200150Z AUTO 27007KT 9999 SCT020 SCT023 BKN026 04/03 Q1014
03:20
V
4 °C 10 km+ 3.400 ft 250° 250° 9 kt METAR LSZR 200120Z AUTO 25009KT 210V290 9999 FEW030 BKN034 04/02 Q1013
02:50
V
6 °C 10 km+ 7.000 ft 270° 270° 7 kt METAR LSZR 200050Z AUTO 27007KT 230V300 9999 SCT024 SCT040 BKN070 06/03 Q1013
02:20
V
6 °C 10 km+ 7.000 ft 260° 260° 6 kt METAR LSZR 200020Z AUTO 26006KT 220V290 9999 SCT034 SCT039 BKN070 06/02 Q1013
01:50
V
7 °C 10 km+ 6.500 ft 250° 250° 9 kt METAR LSZR 192350Z AUTO 25009KT 210V290 9999 BKN065 07/02 Q1013
01:20
V
7 °C 10 km+ 8.000 ft 240° 240° 9 kt METAR LSZR 192320Z AUTO 24009KT 200V280 9999 BKN080 07/02 Q1013
00:50
V
7 °C 10 km+ 5.500 ft 250° 250° 8 kt METAR LSZR 192250Z AUTO 25008KT 200V280 9999 FEW046 BKN055 07/02 Q1013
00:20
V
7 °C 10 km+ 5.000 ft 250° 250° 10 kt METAR LSZR 192220Z AUTO 25010KT 210V290 9999 BKN050 07/02 Q1013

19. April 2024

Uhrzeit Code Wetter Temp. Sichtweite Wolkendecke Wind METAR/SPECI
23:50
V
7 °C 10 km+ 5.000 ft 230° 230° 6 kt METAR LSZR 192150Z AUTO 23006KT 170V300 9999 SCT045 BKN050 07/03 Q1013
23:20
M
5 °C 10 km+ 2.900 ft 290° 290° 11 kt METAR LSZR 192120Z AUTO 29011KT 220V320 9999 SCT026 BKN029 BKN032 05/03 Q1013
22:50
V
5 °C 10 km+ - 260° 260° 7 kt METAR LSZR 192050Z AUTO 26007KT 210V300 9999 -RA FEW031 SCT043 05/03 Q1013
22:20
V
5 °C 10 km+ - 270° 270° 10 kt METAR LSZR 192020Z AUTO 27010KT 9999 -RA BKN/// 05/04 Q1013
21:50
M
5 °C 10 km+ 2.200 ft 280° 280° 11 kt METAR LSZR 191950Z AUTO 28011KT 9999 -RA BKN022 BKN025 BKN028 05/03 Q1013
21:20
V
6 °C 10 km+ - 270° 270° 10 kt METAR LSZR 191920Z AUTO 27010KT 220V310 9999 RA BKN/// 06/03 Q1013
20:50
V
6 °C 10 km+ 3.300 ft 270° 270° 9 kt METAR LSZR 191850Z AUTO 27009KT 230V320 9999 -RA BKN033 06/03 Q1012
20:20
M
6 °C 10 km+ 3.000 ft 250° 250° 8 kt METAR LSZR 191820Z 25008KT 200V330 9999 -RA FEW025 BKN030 06/02 Q1012 RMK P
19:50
M
6 °C 10 km+ 3.000 ft 250° 250° 8 kt METAR LSZR 191750Z 25008KT 200V330 9999 -RA FEW025 BKN030 06/02 Q1012 RMK P
19:20
V
7 °C 10 km+ 4.700 ft 240° 240° 6 kt METAR LSZR 191720Z 24006KT 150V330 9999 -RA SCT030 BKN047 07/02 Q1013 RMK O
18:50
V
7 °C 10 km+ 4.700 ft 240° 240° 6 kt METAR LSZR 191650Z 24006KT 150V330 9999 SCT030 BKN047 07/02 Q1013 RMK O
18:20
M
6 °C 10 km+ 2.700 ft 240° 240° 7 kt METAR LSZR 191620Z 24007KT 190V290 9999 -RA BKN027 BKN031 06/02 Q1013 RMK N
17:50
M
6 °C 10 km+ 2.700 ft 240° 240° 7 kt METAR LSZR 191550Z 24007KT 190V290 9999 -RA BKN027 BKN031 06/02 Q1013 RMK N
17:20
V
6 °C 10 km+ 4.000 ft 250° 250° 7 kt METAR LSZR 191520Z 25007KT 190V300 9999 -RA SCT036 BKN040 06/02 Q1014 RMK M
16:50
V
6 °C 10 km+ 5.000 ft 240° 240° 8 kt METAR LSZR 191450Z 24008KT 210V310 9999 -RA FEW015 SCT044 BKN050 06/02 Q1014 RMK L
16:20
V
6 °C 10 km+ 5.000 ft 240° 240° 8 kt METAR LSZR 191420Z 24008KT 210V310 9999 -RA FEW015 SCT044 BKN050 06/02 Q1014 RMK L
15:50
V
7 °C 10 km+ 3.400 ft 250° 250° 11 - 22 kt METAR LSZR 191350Z 25011G22KT 190V300 9999 -RA FEW015 BKN034 07/01 Q1015 RMK K
15:20
V
8 °C 10 km+ 3.800 ft 250° 250° 13 - 25 kt METAR LSZR 191320Z 25013G25KT 210V290 9999 -DZ SCT010 BKN038 BKN043 08/M01 Q1015 RMK J
14:50
V
8 °C 10 km+ 3.800 ft 250° 250° 13 - 25 kt METAR LSZR 191250Z 25013G25KT 210V290 9999 -DZ SCT010 BKN038 BKN043 08/M01 Q1015 RMK J
14:20
V
8 °C 10 km+ 4.800 ft 250° 250° 12 - 24 kt METAR LSZR 191220Z 25012G24KT 200V300 9999 SCT010 BKN048 BKN055 08/M02 Q1016 RMK I
13:50
V
8 °C 10 km+ 6.500 ft 230° 230° 11 kt METAR LSZR 191150Z 23011KT 170V300 9999 FEW037 SCT055 OVC065 08/M00 Q1016 RMK H
13:20
V
8 °C 10 km+ 6.500 ft 230° 230° 11 kt METAR LSZR 191120Z 23011KT 170V300 9999 FEW037 SCT055 OVC065 08/M00 Q1016 RMK H
12:50
V
8 °C 10 km+ 7.000 ft 230° 230° 7 - 17 kt METAR LSZR 191050Z 23007G17KT 170V290 9999 FEW037 SCT060 OVC070 08/M00 Q1017 RMK G
12:20
V
8 °C 10 km+ 7.000 ft 240° 240° 8 kt METAR LSZR 191020Z 24008KT 170V300 9999 SCT040 BKN070 OVC080 08/01 Q1018 RMK F
11:50
V
8 °C 10 km+ 7.000 ft 240° 240° 8 kt METAR LSZR 190950Z 24008KT 170V300 9999 SCT040 BKN070 OVC080 08/01 Q1018 RMK F
11:20
V
8 °C 10 km+ 4.000 ft 230° 230° 6 kt METAR LSZR 190920Z 23006KT 180V280 9999 VCSH BKN040 08/02 Q1019 RMK E
10:50
V
7 °C 10 km+ 4.000 ft 230° 230° 6 kt METAR LSZR 190850Z 23006KT 180V280 9999 VCSH BKN040 07/02 Q1019 RMK E
10:20
V
7 °C 10 km+ 7.000 ft 240° 240° 9 - 19 kt METAR LSZR 190820Z 24009G19KT 210V290 9999 BKN070 07/02 Q1019 RMK D
09:50
V
7 °C 10 km+ 7.000 ft 220° 220° 6 kt METAR LSZR 190750Z 22006KT 180V270 9999 BKN070 07/02 Q1019 RMK D
09:20
V
6 °C 10 km+ 6.000 ft 230° 230° 5 kt METAR LSZR 190720Z AUTO 23005KT 180V280 9999 FEW039 SCT050 BKN060 06/01 Q1019
08:50
V
6 °C 10 km+ 4.000 ft 240° 240° 4 kt METAR LSZR 190650Z 24004KT 180V290 9999 BKN040 06/01 Q1019 RMK C
08:20
V
6 °C 10 km+ 5.000 ft 250° 250° 5 kt METAR LSZR 190620Z 25005KT 200V290 9999 BKN050 06/01 Q1019 RMK B
07:50
V
6 °C 10 km+ 7.000 ft 250° 250° 3 kt METAR LSZR 190550Z 25003KT 170V290 9999 BKN070 06/01 Q1019 RMK B
07:20
V
5 °C 10 km+ 6.500 ft Var Var 1 kt METAR LSZR 190520Z AUTO VRB01KT 9999 BKN065 05/01 Q1019
06:50
V
5 °C 10 km+ - 240° 240° 4 kt METAR LSZR 190450Z 24004KT 180V280 9999 FEW030 05/01 Q1019 RMK A
06:20
V
5 °C 10 km+ - 240° 240° 4 kt METAR LSZR 190420Z 24004KT 180V280 9999 FEW030 05/01 Q1019 RMK A
05:50
V
4 °C 10 km+ - Var Var 3 kt METAR LSZR 190350Z AUTO VRB03KT 9999 FEW050 SCT070 04/03 Q1019
05:20
V
4 °C 10 km+ 4.200 ft Var Var 3 kt METAR LSZR 190320Z AUTO VRB03KT 9999 BKN042 04/04 Q1020
04:50
V
4 °C 10 km+ 3.600 ft Var Var 1 kt METAR LSZR 190250Z AUTO VRB01KT 9999 OVC036 04/04 Q1020
04:20
V
4 °C 10 km+ 3.300 ft 100° 100° 3 kt METAR LSZR 190220Z AUTO 10003KT 9999 BKN033 04/04 Q1020
03:50
M
5 °C 10 km+ 2.800 ft 090° 090° 3 kt METAR LSZR 190150Z AUTO 09003KT 9999 -DZ BKN028 05/04 Q1020
03:20
M
4 °C 10 km+ 2.800 ft 110° 110° 3 kt METAR LSZR 190120Z AUTO 11003KT 9999 SCT025 BKN028 BKN044 04/04 Q1020
02:50
M
5 °C 10 km+ 2.800 ft 110° 110° 3 kt METAR LSZR 190050Z AUTO 11003KT 9999 BKN028 05/04 Q1021
02:20
M
4 °C 10 km+ 2.600 ft 070° 070° 3 kt METAR LSZR 190020Z AUTO 07003KT 9999 OVC026 04/04 Q1021
01:50
M
4 °C 10 km+ 2.400 ft 080° 080° 4 kt METAR LSZR 182350Z AUTO 08004KT 9999 BKN024 04/04 Q1021
01:20
M
4 °C 10 km+ 2.300 ft 090° 090° 3 kt METAR LSZR 182320Z AUTO 09003KT 9999 BKN023 04/04 Q1021
00:50
M
4 °C 10 km+ 2.300 ft 100° 100° 4 kt METAR LSZR 182250Z AUTO 10004KT 9999 BKN023 04/04 Q1021
00:20
M
4 °C 10 km+ 2.400 ft 080° 080° 3 kt METAR LSZR 182220Z AUTO 08003KT 9999 OVC024 04/04 Q1021

18. April 2024

Uhrzeit Code Wetter Temp. Sichtweite Wolkendecke Wind METAR/SPECI
23:50
M
4 °C 10 km+ 2.400 ft 100° 100° 5 kt METAR LSZR 182150Z AUTO 10005KT 9999 BKN024 04/03 Q1021
23:20
M
4 °C 10 km+ 2.500 ft 100° 100° 5 kt METAR LSZR 182120Z AUTO 10005KT 9999 BKN025 04/03 Q1021 REDZ
22:50
M
4 °C 7 km 2.000 ft Var Var 2 kt METAR LSZR 182050Z AUTO VRB02KT 7000 -RA BKN020 04/03 Q1021
22:20
M
4 °C 10 km+ 2.100 ft Var Var 3 kt METAR LSZR 182020Z AUTO VRB03KT 9999 -RA FEW015 SCT017 BKN021 04/03 Q1021
21:50
M
5 °C 8 km 1.500 ft 240° 240° 4 kt METAR LSZR 181950Z AUTO 24004KT 190V300 8000 RA FEW009 BKN015 BKN017 05/03 Q1021
21:20
M
5 °C 10 km+ 1.900 ft 040° 040° 3 kt METAR LSZR 181920Z AUTO 04003KT 320V100 9999 -RA BKN019 OVC021 05/04 Q1020
20:50
M
5 °C 10 km+ 2.700 ft 110° 110° 4 kt METAR LSZR 181850Z AUTO 11004KT 080V150 9999 -RA BKN027 05/04 Q1020
20:20
M
4 °C 10 km+ 2.700 ft 100° 100° 6 kt METAR LSZR 181820Z AUTO 10006KT 9999 BKN027 BKN036 04/03 Q1019
19:50
M
5 °C 10 km+ 2.000 ft 100° 100° 7 kt METAR LSZR 181750Z 10007KT 9999 -RA BKN020 05/03 Q1019 RMK O
19:20
M
7 °C 10 km+ 2.700 ft 330° 330° 6 kt METAR LSZR 181720Z 33006KT 9999 VCSH BKN027 07/02 Q1018 RMK N
18:50
M
7 °C 10 km+ 2.700 ft 330° 330° 6 kt METAR LSZR 181650Z 33006KT 9999 VCSH BKN027 07/02 Q1018 RMK N
18:20
V
7 °C 10 km+ 8.000 ft 330° 330° 5 kt METAR LSZR 181620Z 33005KT 9999 FEW020 SCT060 BKN080 07/02 Q1018 RMK M
17:50
V
7 °C 10 km+ 8.000 ft 330° 330° 5 kt METAR LSZR 181550Z 33005KT 9999 FEW020 SCT060 BKN080 07/02 Q1018 RMK M
17:20
V
6 °C 10 km+ 8.500 ft 300° 300° 6 kt METAR LSZR 181520Z 30006KT 260V330 9999 FEW020 BKN085 06/02 Q1017 RMK L
16:50
V
6 °C 10 km+ 5.500 ft 260° 260° 7 kt METAR LSZR 181450Z 26007KT 220V300 9999 -RA FEW022 SCT049 BKN055 06/01 Q1017 RMK K
16:20
V
7 °C 10 km+ 10.000 ft Var Var 2 kt METAR LSZR 181420Z VRB02KT 9999 VCSH FEW020 SCT050 BKN100 07/01 Q1017 RMK J
15:50
V
7 °C 10 km+ - Var Var 2 kt METAR LSZR 181350Z AUTO VRB02KT 9999 FEW048 SCT100 07/01 Q1017
15:20
V
7 °C 10 km+ 5.500 ft 330° 330° 8 kt METAR LSZR 181320Z 33008KT 310V010 9999 FEW020 BKN055 07/01 Q1017 RMK I
14:50
V
7 °C 10 km+ 5.500 ft 330° 330° 8 kt METAR LSZR 181250Z 33008KT 280V360 9999 FEW020 BKN055 07/01 Q1017 RMK I
14:20
V
7 °C 10 km+ 5.500 ft 270° 270° 5 kt METAR LSZR 181220Z 27005KT 230V300 9999 FEW020 BKN055 07/02 Q1016 RMK H
13:50
V
6 °C 10 km+ 6.000 ft 300° 300° 5 kt METAR LSZR 181150Z AUTO 30005KT 270V340 9999 FEW050 BKN060 BKN070 06/02 Q1016
13:20
V
7 °C 10 km+ - 350° 350° 4 kt METAR LSZR 181120Z 35004KT 270V090 9999 SCT045 07/01 Q1016 RMK G
12:50
V
7 °C 10 km+ - 350° 350° 4 kt METAR LSZR 181050Z 35004KT 270V090 9999 SCT045 07/01 Q1016 RMK G
12:20
V
5 °C 10 km+ 4.500 ft 320° 320° 3 kt METAR LSZR 181020Z 32003KT 220V020 9999 BKN045 05/03 Q1015 RMK F
11:50
V
5 °C 10 km+ - Var Var 3 kt METAR LSZR 180950Z AUTO VRB03KT 9999 FEW045 SCT100 05/02 Q1015
11:20
M
5 °C 10 km+ 1.800 ft Var Var 2 kt METAR LSZR 180920Z VRB02KT 9999 FEW011 BKN018 BKN045 05/03 Q1015 RMK E
10:50
M
4 °C 10 km+ 1.800 ft 090° 090° 3 kt METAR LSZR 180850Z 09003KT 9999 FEW011 BKN018 04/03 Q1015 RMK E
10:20
M
2 °C 10 km+ 1.900 ft Var Var 1 kt METAR LSZR 180820Z VRB01KT 9999 -RA SCT015 BKN019 BKN048 02/02 Q1014 RESN RMK D
09:50
M
1 °C 10 km+ 1.600 ft 140° 140° 4 kt METAR LSZR 180750Z 14004KT 9999 -RA SCT014 BKN016 01/01 Q1014 RMK D
09:20
I
1 °C 6 km 900 ft Var Var 3 kt METAR LSZR 180720Z VRB03KT 6000 -SN FEW005 OVC009 01/01 Q1014 RERASN RMK D
08:50
M
2 °C 6 km 2.000 ft 310° 310° 8 kt METAR LSZR 180650Z 31008KT 6000 RA SCT009 BKN020 02/01 Q1014 RERA RMK C
08:20
M
4 °C 10 km+ 2.300 ft 080° 080° 3 kt METAR LSZR 180620Z 08003KT 9999 BKN023 BKN042 04/03 Q1013 RMK C
07:50
V
4 °C 10 km+ - Var Var 2 kt METAR LSZR 180550Z VRB02KT 9999 FEW025 SCT055 04/03 Q1013 RMK B
Eine Änderung melden